KHJH

Hebron Municipal Airport

Hebron, Nebraska, USA
METAR KHJH 220415Z AUTO 10005KT 10SM CLR M04/M06 A2967 RMK AO2 T10391056
Observed Flight Rules
Jan-22 @ 04:15 UTC (30 minutes ago) Visual Flight Rules
Wind Visibility Clouds
100° at 5 knots 10 miles
  • Clear skies
Temperatures Readings
Current -4°C / 25°F
Dewpoint -6°C / 21°F
Humidity 86%
Altimeter 29.67" Hg
Pressure 1004.72 hPa
Elevation 447
METAR KHJH 220415Z AUTO 10005KT 10SM CLR M04/M06 A2967 RMK AO2 T10391056
Observed Flight Rules
Jan-22 @ 04:15 UTC
(30 minutes ago)
VFR
Wind Visibility
100° at 5 knots 10 miles
Clouds
  • Clear skies
Temperature Dewpoint
-4°C / 25°F -6°C / 21°F
Humidity Altimeter Pressure
86% 29.67" Hg 1004.72 hPa